sensor_id;sensor_type;location;lat;lon;timestamp;P1;durP1;ratioP1;P2;durP2;ratioP2
30872;SDS011;17579;42.690;2.586;2023-11-21T00:00:30;1.25;;;0.45;;
30872;SDS011;17579;42.690;2.586;2023-11-21T00:02:59;0.50;;;0.30;;
30872;SDS011;17579;42.690;2.586;2023-11-21T00:05:29;1.08;;;0.20;;
30872;SDS011;17579;42.690;2.586;2023-11-21T00:07:58;0.32;;;0.20;;
30872;SDS011;17579;42.690;2.586;2023-11-21T00:10:23;0.68;;;0.28;;
30872;SDS011;17579;42.690;2.586;2023-11-21T00:12:52;0.60;;;0.30;;
30872;SDS011;17579;42.690;2.586;2023-11-21T00:15:20;0.90;;;0.35;;
30872;SDS011;17579;42.690;2.586;2023-11-21T00:17:46;0.85;;;0.40;;
30872;SDS011;17579;42.690;2.586;2023-11-21T00:20:12;0.77;;;0.38;;
30872;SDS011;17579;42.690;2.586;2023-11-21T00:22:38;0.90;;;0.22;;
30872;SDS011;17579;42.690;2.586;2023-11-21T00:25:06;0.70;;;0.20;;
30872;SDS011;17579;42.690;2.586;2023-11-21T00:27:36;0.20;;;0.20;;
30872;SDS011;17579;42.690;2.586;2023-11-21T00:30:24;0.68;;;0.30;;
30872;SDS011;17579;42.690;2.586;2023-11-21T00:32:59;0.28;;;0.20;;
30872;SDS011;17579;42.690;2.586;2023-11-21T00:35:25;0.28;;;0.13;;
30872;SDS011;17579;42.690;2.586;2023-11-21T00:37:51;0.30;;;0.30;;
30872;SDS011;17579;42.690;2.586;2023-11-21T00:40:17;2.05;;;0.35;;
30872;SDS011;17579;42.690;2.586;2023-11-21T00:42:52;0.20;;;0.20;;
30872;SDS011;17579;42.690;2.586;2023-11-21T00:45:25;2.10;;;0.57;;
30872;SDS011;17579;42.690;2.586;2023-11-21T00:47:51;1.70;;;0.63;;
30872;SDS011;17579;42.690;2.586;2023-11-21T00:53:05;2.45;;;0.40;;
30872;SDS011;17579;42.690;2.586;2023-11-21T00:55:32;2.78;;;0.65;;
30872;SDS011;17579;42.690;2.586;2023-11-21T00:57:59;1.10;;;0.70;;
30872;SDS011;17579;42.690;2.586;2023-11-21T01:00:25;1.17;;;0.50;;
30872;SDS011;17579;42.690;2.586;2023-11-21T01:05:41;6.28;;;1.30;;
30872;SDS011;17579;42.690;2.586;2023-11-21T01:08:07;3.35;;;1.10;;
30872;SDS011;17579;42.690;2.586;2023-11-21T01:10:38;2.80;;;0.95;;
30872;SDS011;17579;42.690;2.586;2023-11-21T01:13:07;2.42;;;0.68;;
30872;SDS011;17579;42.690;2.586;2023-11-21T01:15:38;2.45;;;0.85;;
30872;SDS011;17579;42.690;2.586;2023-11-21T01:18:03;2.15;;;0.98;;
30872;SDS011;17579;42.690;2.586;2023-11-21T01:20:38;3.88;;;1.05;;
30872;SDS011;17579;42.690;2.586;2023-11-21T01:25:55;1.02;;;0.70;;
30872;SDS011;17579;42.690;2.586;2023-11-21T01:28:21;3.55;;;0.60;;
30872;SDS011;17579;42.690;2.586;2023-11-21T01:30:48;1.65;;;0.77;;
30872;SDS011;17579;42.690;2.586;2023-11-21T01:33:14;1.40;;;0.57;;
30872;SDS011;17579;42.690;2.586;2023-11-21T01:35:41;2.33;;;0.90;;
30872;SDS011;17579;42.690;2.586;2023-11-21T01:38:11;2.70;;;0.65;;
30872;SDS011;17579;42.690;2.586;2023-11-21T01:40:37;4.15;;;0.85;;
30872;SDS011;17579;42.690;2.586;2023-11-21T01:43:03;3.55;;;0.80;;
30872;SDS011;17579;42.690;2.586;2023-11-21T01:45:34;1.23;;;0.70;;
30872;SDS011;17579;42.690;2.586;2023-11-21T01:48:00;1.63;;;0.75;;
30872;SDS011;17579;42.690;2.586;2023-11-21T01:50:31;1.92;;;0.65;;
30872;SDS011;17579;42.690;2.586;2023-11-21T01:56:03;1.10;;;0.60;;
30872;SDS011;17579;42.690;2.586;2023-11-21T01:58:38;3.10;;;0.80;;
30872;SDS011;17579;42.690;2.586;2023-11-21T02:01:04;1.95;;;0.75;;
30872;SDS011;17579;42.690;2.586;2023-11-21T02:03:35;2.33;;;0.80;;
30872;SDS011;17579;42.690;2.586;2023-11-21T02:06:04;1.52;;;0.63;;
30872;SDS011;17579;42.690;2.586;2023-11-21T02:08:30;1.52;;;0.60;;
30872;SDS011;17579;42.690;2.586;2023-11-21T02:10:56;3.45;;;0.90;;
30872;SDS011;17579;42.690;2.586;2023-11-21T02:13:22;1.90;;;0.77;;
30872;SDS011;17579;42.690;2.586;2023-11-21T02:15:50;2.25;;;0.70;;
30872;SDS011;17579;42.690;2.586;2023-11-21T02:18:23;2.58;;;0.68;;
30872;SDS011;17579;42.690;2.586;2023-11-21T02:20:58;2.45;;;0.80;;
30872;SDS011;17579;42.690;2.586;2023-11-21T02:23:27;1.70;;;0.77;;
30872;SDS011;17579;42.690;2.586;2023-11-21T02:25:53;2.40;;;1.02;;
30872;SDS011;17579;42.690;2.586;2023-11-21T02:28:27;1.92;;;0.70;;
30872;SDS011;17579;42.690;2.586;2023-11-21T02:30:52;1.45;;;0.80;;
30872;SDS011;17579;42.690;2.586;2023-11-21T02:33:21;0.93;;;0.63;;
30872;SDS011;17579;42.690;2.586;2023-11-21T02:35:49;1.20;;;0.50;;
30872;SDS011;17579;42.690;2.586;2023-11-21T02:38:22;1.98;;;0.68;;
30872;SDS011;17579;42.690;2.586;2023-11-21T02:40:52;2.05;;;0.70;;
30872;SDS011;17579;42.690;2.586;2023-11-21T02:43:20;1.27;;;0.52;;
30872;SDS011;17579;42.690;2.586;2023-11-21T02:45:48;1.58;;;0.60;;
30872;SDS011;17579;42.690;2.586;2023-11-21T02:48:14;1.27;;;0.55;;
30872;SDS011;17579;42.690;2.586;2023-11-21T02:50:40;0.82;;;0.40;;
30872;SDS011;17579;42.690;2.586;2023-11-21T02:53:05;0.88;;;0.28;;
30872;SDS011;17579;42.690;2.586;2023-11-21T02:55:31;0.50;;;0.30;;
30872;SDS011;17579;42.690;2.586;2023-11-21T02:58:00;2.03;;;0.52;;
30872;SDS011;17579;42.690;2.586;2023-11-21T03:00:31;0.47;;;0.38;;
30872;SDS011;17579;42.690;2.586;2023-11-21T03:02:57;0.40;;;0.30;;
30872;SDS011;17579;42.690;2.586;2023-11-21T03:05:23;1.08;;;0.52;;
30872;SDS011;17579;42.690;2.586;2023-11-21T03:07:48;0.98;;;0.40;;
30872;SDS011;17579;42.690;2.586;2023-11-21T03:10:14;1.27;;;0.50;;
30872;SDS011;17579;42.690;2.586;2023-11-21T03:12:40;1.48;;;0.50;;
30872;SDS011;17579;42.690;2.586;2023-11-21T03:15:06;0.50;;;0.40;;
30872;SDS011;17579;42.690;2.586;2023-11-21T03:17:32;0.50;;;0.40;;
30872;SDS011;17579;42.690;2.586;2023-11-21T03:22:45;0.30;;;0.30;;
30872;SDS011;17579;42.690;2.586;2023-11-21T03:25:11;0.47;;;0.22;;
30872;SDS011;17579;42.690;2.586;2023-11-21T03:27:36;0.40;;;0.40;;
30872;SDS011;17579;42.690;2.586;2023-11-21T03:30:04;2.03;;;0.40;;
30872;SDS011;17579;42.690;2.586;2023-11-21T03:32:32;0.63;;;0.28;;
30872;SDS011;17579;42.690;2.586;2023-11-21T03:34:58;0.30;;;0.22;;
30872;SDS011;17579;42.690;2.586;2023-11-21T03:37:27;1.33;;;0.35;;
30872;SDS011;17579;42.690;2.586;2023-11-21T03:39:56;1.35;;;0.30;;
30872;SDS011;17579;42.690;2.586;2023-11-21T03:42:21;1.02;;;0.50;;
30872;SDS011;17579;42.690;2.586;2023-11-21T03:44:50;1.13;;;0.50;;
30872;SDS011;17579;42.690;2.586;2023-11-21T03:47:24;0.57;;;0.50;;
30872;SDS011;17579;42.690;2.586;2023-11-21T03:49:53;0.63;;;0.38;;
30872;SDS011;17579;42.690;2.586;2023-11-21T03:52:21;0.60;;;0.40;;
30872;SDS011;17579;42.690;2.586;2023-11-21T03:57:33;0.30;;;0.30;;
30872;SDS011;17579;42.690;2.586;2023-11-21T03:59:58;1.02;;;0.43;;
30872;SDS011;17579;42.690;2.586;2023-11-21T04:02:24;1.15;;;0.30;;
30872;SDS011;17579;42.690;2.586;2023-11-21T04:05:13;2.15;;;0.50;;
30872;SDS011;17579;42.690;2.586;2023-11-21T04:07:50;1.92;;;0.55;;
30872;SDS011;17579;42.690;2.586;2023-11-21T04:10:16;1.27;;;0.40;;
30872;SDS011;17579;42.690;2.586;2023-11-21T04:12:43;1.17;;;0.40;;
30872;SDS011;17579;42.690;2.586;2023-11-21T04:15:10;1.63;;;0.43;;
30872;SDS011;17579;42.690;2.586;2023-11-21T04:17:39;2.70;;;0.70;;
30872;SDS011;17579;42.690;2.586;2023-11-21T04:20:06;1.02;;;0.50;;
30872;SDS011;17579;42.690;2.586;2023-11-21T04:25:08;0.45;;;0.40;;
30872;SDS011;17579;42.690;2.586;2023-11-21T04:27:36;1.95;;;0.47;;
30872;SDS011;17579;42.690;2.586;2023-11-21T04:30:05;0.98;;;0.40;;
30872;SDS011;17579;42.690;2.586;2023-11-21T04:32:31;0.88;;;0.35;;
30872;SDS011;17579;42.690;2.586;2023-11-21T04:34:57;1.23;;;0.40;;
30872;SDS011;17579;42.690;2.586;2023-11-21T04:37:22;1.40;;;0.40;;
30872;SDS011;17579;42.690;2.586;2023-11-21T04:39:50;0.20;;;0.17;;
30872;SDS011;17579;42.690;2.586;2023-11-21T04:42:17;0.57;;;0.40;;
30872;SDS011;17579;42.690;2.586;2023-11-21T04:44:45;0.28;;;0.10;;
30872;SDS011;17579;42.690;2.586;2023-11-21T04:47:13;0.43;;;0.22;;
30872;SDS011;17579;42.690;2.586;2023-11-21T04:49:41;1.00;;;0.40;;
30872;SDS011;17579;42.690;2.586;2023-11-21T04:52:08;0.20;;;0.20;;
30872;SDS011;17579;42.690;2.586;2023-11-21T04:54:35;0.10;;;0.10;;
30872;SDS011;17579;42.690;2.586;2023-11-21T04:57:24;0.55;;;0.17;;
30872;SDS011;17579;42.690;2.586;2023-11-21T04:59:49;0.43;;;0.20;;
30872;SDS011;17579;42.690;2.586;2023-11-21T05:02:15;0.22;;;0.22;;
30872;SDS011;17579;42.690;2.586;2023-11-21T05:04:46;0.30;;;0.20;;
30872;SDS011;17579;42.690;2.586;2023-11-21T05:07:13;0.20;;;0.20;;
30872;SDS011;17579;42.690;2.586;2023-11-21T05:12:05;1.17;;;0.20;;
30872;SDS011;17579;42.690;2.586;2023-11-21T05:14:31;0.30;;;0.30;;
30872;SDS011;17579;42.690;2.586;2023-11-21T05:16:59;0.30;;;0.30;;
30872;SDS011;17579;42.690;2.586;2023-11-21T05:19:32;0.85;;;0.40;;
30872;SDS011;17579;42.690;2.586;2023-11-21T05:22:00;2.60;;;0.28;;
30872;SDS011;17579;42.690;2.586;2023-11-21T05:24:31;2.28;;;0.40;;
30872;SDS011;17579;42.690;2.586;2023-11-21T05:27:02;0.13;;;0.10;;
30872;SDS011;17579;42.690;2.586;2023-11-21T05:29:30;1.27;;;0.30;;
30872;SDS011;17579;42.690;2.586;2023-11-21T05:31:56;1.00;;;0.30;;
30872;SDS011;17579;42.690;2.586;2023-11-21T05:34:24;0.30;;;0.30;;
30872;SDS011;17579;42.690;2.586;2023-11-21T05:36:50;0.25;;;0.25;;
30872;SDS011;17579;42.690;2.586;2023-11-21T05:39:16;0.82;;;0.20;;
30872;SDS011;17579;42.690;2.586;2023-11-21T05:41:50;0.20;;;0.10;;
30872;SDS011;17579;42.690;2.586;2023-11-21T05:44:16;0.25;;;0.25;;
30872;SDS011;17579;42.690;2.586;2023-11-21T05:46:44;0.45;;;0.25;;
30872;SDS011;17579;42.690;2.586;2023-11-21T05:49:15;0.20;;;0.20;;
30872;SDS011;17579;42.690;2.586;2023-11-21T05:51:44;0.20;;;0.20;;
30872;SDS011;17579;42.690;2.586;2023-11-21T05:54:10;0.40;;;0.25;;
30872;SDS011;17579;42.690;2.586;2023-11-21T05:56:39;0.28;;;0.28;;
30872;SDS011;17579;42.690;2.586;2023-11-21T05:59:04;0.32;;;0.30;;
30872;SDS011;17579;42.690;2.586;2023-11-21T06:01:31;0.25;;;0.25;;
30872;SDS011;17579;42.690;2.586;2023-11-21T06:03:57;0.65;;;0.20;;
30872;SDS011;17579;42.690;2.586;2023-11-21T06:06:24;0.93;;;0.35;;
30872;SDS011;17579;42.690;2.586;2023-11-21T06:08:50;0.17;;;0.17;;
30872;SDS011;17579;42.690;2.586;2023-11-21T06:11:16;0.32;;;0.30;;
30872;SDS011;17579;42.690;2.586;2023-11-21T06:13:42;0.20;;;0.20;;
30872;SDS011;17579;42.690;2.586;2023-11-21T06:16:08;0.20;;;0.20;;
30872;SDS011;17579;42.690;2.586;2023-11-21T06:18:34;0.77;;;0.30;;
30872;SDS011;17579;42.690;2.586;2023-11-21T06:21:02;0.10;;;0.10;;
30872;SDS011;17579;42.690;2.586;2023-11-21T06:23:31;0.10;;;0.10;;
30872;SDS011;17579;42.690;2.586;2023-11-21T06:26:17;6.60;;;0.50;;
30872;SDS011;17579;42.690;2.586;2023-11-21T06:28:43;0.22;;;0.10;;
30872;SDS011;17579;42.690;2.586;2023-11-21T06:34:01;0.40;;;0.25;;
30872;SDS011;17579;42.690;2.586;2023-11-21T06:36:29;0.45;;;0.43;;
30872;SDS011;17579;42.690;2.586;2023-11-21T06:39:00;0.40;;;0.20;;
30872;SDS011;17579;42.690;2.586;2023-11-21T06:41:34;0.20;;;0.20;;
30872;SDS011;17579;42.690;2.586;2023-11-21T06:44:06;0.13;;;0.10;;
30872;SDS011;17579;42.690;2.586;2023-11-21T06:46:31;1.90;;;0.40;;
30872;SDS011;17579;42.690;2.586;2023-11-21T06:49:07;0.93;;;0.30;;
30872;SDS011;17579;42.690;2.586;2023-11-21T06:51:34;1.00;;;0.65;;
30872;SDS011;17579;42.690;2.586;2023-11-21T06:54:15;0.52;;;0.20;;
30872;SDS011;17579;42.690;2.586;2023-11-21T06:56:46;0.55;;;0.30;;
30872;SDS011;17579;42.690;2.586;2023-11-21T06:59:14;1.50;;;0.45;;
30872;SDS011;17579;42.690;2.586;2023-11-21T07:01:40;0.77;;;0.40;;
30872;SDS011;17579;42.690;2.586;2023-11-21T07:04:06;1.08;;;0.50;;
30872;SDS011;17579;42.690;2.586;2023-11-21T07:06:34;2.08;;;0.35;;
30872;SDS011;17579;42.690;2.586;2023-11-21T07:09:03;0.25;;;0.13;;
30872;SDS011;17579;42.690;2.586;2023-11-21T07:11:41;0.50;;;0.20;;
30872;SDS011;17579;42.690;2.586;2023-11-21T07:14:09;1.85;;;0.40;;
30872;SDS011;17579;42.690;2.586;2023-11-21T07:16:35;1.33;;;0.30;;
30872;SDS011;17579;42.690;2.586;2023-11-21T07:19:08;0.20;;;0.20;;
30872;SDS011;17579;42.690;2.586;2023-11-21T07:21:34;0.30;;;0.30;;
30872;SDS011;17579;42.690;2.586;2023-11-21T07:24:01;0.40;;;0.20;;
30872;SDS011;17579;42.690;2.586;2023-11-21T07:26:28;0.20;;;0.20;;
30872;SDS011;17579;42.690;2.586;2023-11-21T07:28:56;2.60;;;0.35;;
30872;SDS011;17579;42.690;2.586;2023-11-21T07:31:31;0.47;;;0.22;;
30872;SDS011;17579;42.690;2.586;2023-11-21T07:34:00;0.20;;;0.20;;
30872;SDS011;17579;42.690;2.586;2023-11-21T07:37:06;0.20;;;0.10;;
30872;SDS011;17579;42.690;2.586;2023-11-21T07:39:34;0.40;;;0.10;;
30872;SDS011;17579;42.690;2.586;2023-11-21T07:42:01;0.52;;;0.30;;
30872;SDS011;17579;42.690;2.586;2023-11-21T07:44:28;0.20;;;0.20;;
30872;SDS011;17579;42.690;2.586;2023-11-21T07:46:59;1.25;;;0.25;;
30872;SDS011;17579;42.690;2.586;2023-11-21T07:49:28;0.13;;;0.10;;
30872;SDS011;17579;42.690;2.586;2023-11-21T07:51:53;0.17;;;0.10;;
30872;SDS011;17579;42.690;2.586;2023-11-21T07:54:19;0.20;;;0.20;;
30872;SDS011;17579;42.690;2.586;2023-11-21T07:56:49;0.32;;;0.25;;
30872;SDS011;17579;42.690;2.586;2023-11-21T07:59:14;0.63;;;0.10;;
30872;SDS011;17579;42.690;2.586;2023-11-21T08:01:40;1.13;;;0.20;;
30872;SDS011;17579;42.690;2.586;2023-11-21T08:04:27;0.20;;;0.10;;
30872;SDS011;17579;42.690;2.586;2023-11-21T08:07:06;0.28;;;0.20;;
30872;SDS011;17579;42.690;2.586;2023-11-21T08:09:31;0.10;;;0.10;;
30872;SDS011;17579;42.690;2.586;2023-11-21T08:12:20;0.17;;;0.17;;
30872;SDS011;17579;42.690;2.586;2023-11-21T08:15:04;0.35;;;0.20;;
30872;SDS011;17579;42.690;2.586;2023-11-21T08:17:36;0.05;;;0.05;;
30872;SDS011;17579;42.690;2.586;2023-11-21T08:20:05;0.10;;;0.10;;
30872;SDS011;17579;42.690;2.586;2023-11-21T08:22:31;0.10;;;0.10;;
30872;SDS011;17579;42.690;2.586;2023-11-21T08:25:08;0.15;;;0.05;;
30872;SDS011;17579;42.690;2.586;2023-11-21T08:27:36;0.10;;;0.10;;
30872;SDS011;17579;42.690;2.586;2023-11-21T08:30:05;0.10;;;0.10;;
30872;SDS011;17579;42.690;2.586;2023-11-21T08:32:32;0.10;;;0.10;;
30872;SDS011;17579;42.690;2.586;2023-11-21T08:34:58;0.20;;;0.20;;
30872;SDS011;17579;42.690;2.586;2023-11-21T08:37:25;0.10;;;0.10;;
30872;SDS011;17579;42.690;2.586;2023-11-21T08:40:11;0.10;;;0.10;;
30872;SDS011;17579;42.690;2.586;2023-11-21T08:42:41;0.10;;;0.10;;
30872;SDS011;17579;42.690;2.586;2023-11-21T08:45:08;0.10;;;0.10;;
30872;SDS011;17579;42.690;2.586;2023-11-21T08:47:34;0.57;;;0.22;;
30872;SDS011;17579;42.690;2.586;2023-11-21T08:50:07;0.10;;;0.10;;
30872;SDS011;17579;42.690;2.586;2023-11-21T08:52:34;0.10;;;0.10;;
30872;SDS011;17579;42.690;2.586;2023-11-21T08:54:59;0.20;;;0.20;;
30872;SDS011;17579;42.690;2.586;2023-11-21T09:00:49;0.05;;;0.05;;
30872;SDS011;17579;42.690;2.586;2023-11-21T09:03:17;2.00;;;0.20;;
30872;SDS011;17579;42.690;2.586;2023-11-21T09:05:42;0.20;;;0.10;;
30872;SDS011;17579;42.690;2.586;2023-11-21T09:08:27;0.20;;;0.10;;
30872;SDS011;17579;42.690;2.586;2023-11-21T09:10:54;0.10;;;0.10;;
30872;SDS011;17579;42.690;2.586;2023-11-21T09:13:23;0.10;;;0.10;;
30872;SDS011;17579;42.690;2.586;2023-11-21T09:15:53;0.00;;;0.00;;
30872;SDS011;17579;42.690;2.586;2023-11-21T09:18:36;0.10;;;0.10;;
30872;SDS011;17579;42.690;2.586;2023-11-21T09:21:07;0.30;;;0.13;;
30872;SDS011;17579;42.690;2.586;2023-11-21T09:23:36;0.10;;;0.10;;
30872;SDS011;17579;42.690;2.586;2023-11-21T09:26:04;0.00;;;0.00;;
30872;SDS011;17579;42.690;2.586;2023-11-21T09:28:33;0.10;;;0.10;;
30872;SDS011;17579;42.690;2.586;2023-11-21T09:31:03;0.10;;;0.10;;
30872;SDS011;17579;42.690;2.586;2023-11-21T09:33:34;0.00;;;0.00;;
30872;SDS011;17579;42.690;2.586;2023-11-21T09:36:10;0.10;;;0.10;;
30872;SDS011;17579;42.690;2.586;2023-11-21T09:38:37;0.10;;;0.10;;
30872;SDS011;17579;42.690;2.586;2023-11-21T09:41:11;0.20;;;0.20;;
30872;SDS011;17579;42.690;2.586;2023-11-21T09:43:48;0.10;;;0.10;;
30872;SDS011;17579;42.690;2.586;2023-11-21T09:46:25;0.10;;;0.10;;
30872;SDS011;17579;42.690;2.586;2023-11-21T09:48:53;0.15;;;0.00;;
30872;SDS011;17579;42.690;2.586;2023-11-21T09:51:23;0.10;;;0.10;;
30872;SDS011;17579;42.690;2.586;2023-11-21T09:53:55;0.10;;;0.10;;
30872;SDS011;17579;42.690;2.586;2023-11-21T09:56:26;0.10;;;0.10;;
30872;SDS011;17579;42.690;2.586;2023-11-21T09:59:24;0.10;;;0.10;;
30872;SDS011;17579;42.690;2.586;2023-11-21T10:01:52;0.10;;;0.10;;
30872;SDS011;17579;42.690;2.586;2023-11-21T10:04:39;0.10;;;0.10;;
30872;SDS011;17579;42.690;2.586;2023-11-21T10:07:33;0.25;;;0.17;;
30872;SDS011;17579;42.690;2.586;2023-11-21T10:10:08;0.10;;;0.10;;
30872;SDS011;17579;42.690;2.586;2023-11-21T10:12:55;0.10;;;0.10;;
30872;SDS011;17579;42.690;2.586;2023-11-21T10:15:22;0.00;;;0.00;;
30872;SDS011;17579;42.690;2.586;2023-11-21T10:17:50;0.10;;;0.10;;
30872;SDS011;17579;42.690;2.586;2023-11-21T10:20:19;0.32;;;0.20;;
30872;SDS011;17579;42.690;2.586;2023-11-21T10:22:45;0.10;;;0.10;;
30872;SDS011;17579;42.690;2.586;2023-11-21T10:25:11;0.10;;;0.10;;
30872;SDS011;17579;42.690;2.586;2023-11-21T10:27:42;0.20;;;0.20;;
30872;SDS011;17579;42.690;2.586;2023-11-21T10:30:14;0.10;;;0.10;;
30872;SDS011;17579;42.690;2.586;2023-11-21T10:33:09;0.10;;;0.10;;
30872;SDS011;17579;42.690;2.586;2023-11-21T10:35:46;0.10;;;0.10;;
30872;SDS011;17579;42.690;2.586;2023-11-21T10:38:17;0.20;;;0.20;;
30872;SDS011;17579;42.690;2.586;2023-11-21T10:40:47;0.00;;;0.00;;
30872;SDS011;17579;42.690;2.586;2023-11-21T10:43:14;0.10;;;0.10;;
30872;SDS011;17579;42.690;2.586;2023-11-21T10:46:03;0.10;;;0.10;;
30872;SDS011;17579;42.690;2.586;2023-11-21T10:48:32;0.57;;;0.20;;
30872;SDS011;17579;42.690;2.586;2023-11-21T10:51:06;1.02;;;0.03;;
30872;SDS011;17579;42.690;2.586;2023-11-21T10:53:44;0.15;;;0.10;;
30872;SDS011;17579;42.690;2.586;2023-11-21T10:59:10;0.10;;;0.10;;
30872;SDS011;17579;42.690;2.586;2023-11-21T11:01:41;0.10;;;0.10;;
30872;SDS011;17579;42.690;2.586;2023-11-21T11:04:38;0.10;;;0.10;;
30872;SDS011;17579;42.690;2.586;2023-11-21T11:07:25;0.10;;;0.10;;
30872;SDS011;17579;42.690;2.586;2023-11-21T11:09:53;0.20;;;0.20;;
30872;SDS011;17579;42.690;2.586;2023-11-21T11:12:24;0.10;;;0.10;;
30872;SDS011;17579;42.690;2.586;2023-11-21T11:15:42;0.10;;;0.10;;
30872;SDS011;17579;42.690;2.586;2023-11-21T11:17:48;0.30;;;0.30;;
30872;SDS011;17579;42.690;2.586;2023-11-21T11:20:17;0.10;;;0.10;;
30872;SDS011;17579;42.690;2.586;2023-11-21T11:22:48;0.20;;;0.20;;
30872;SDS011;17579;42.690;2.586;2023-11-21T11:28:26;0.10;;;0.10;;
30872;SDS011;17579;42.690;2.586;2023-11-21T11:33:31;0.10;;;0.10;;
30872;SDS011;17579;42.690;2.586;2023-11-21T11:36:06;0.00;;;0.00;;
30872;SDS011;17579;42.690;2.586;2023-11-21T11:41:42;0.10;;;0.10;;
30872;SDS011;17579;42.690;2.586;2023-11-21T11:44:46;0.10;;;0.10;;
30872;SDS011;17579;42.690;2.586;2023-11-21T11:47:16;0.10;;;0.10;;
30872;SDS011;17579;42.690;2.586;2023-11-21T11:52:42;0.10;;;0.10;;
30872;SDS011;17579;42.690;2.586;2023-11-21T11:55:13;0.20;;;0.20;;
30872;SDS011;17579;42.690;2.586;2023-11-21T11:57:44;0.10;;;0.10;;
30872;SDS011;17579;42.690;2.586;2023-11-21T12:02:41;0.20;;;0.20;;
30872;SDS011;17579;42.690;2.586;2023-11-21T12:05:08;0.20;;;0.20;;
30872;SDS011;17579;42.690;2.586;2023-11-21T12:10:15;0.10;;;0.10;;
30872;SDS011;17579;42.690;2.586;2023-11-21T12:12:45;0.10;;;0.10;;
30872;SDS011;17579;42.690;2.586;2023-11-21T12:15:18;0.05;;;0.05;;
30872;SDS011;17579;42.690;2.586;2023-11-21T12:17:47;0.10;;;0.10;;
30872;SDS011;17579;42.690;2.586;2023-11-21T12:20:20;0.10;;;0.10;;
30872;SDS011;17579;42.690;2.586;2023-11-21T12:22:53;0.10;;;0.10;;
30872;SDS011;17579;42.690;2.586;2023-11-21T12:25:27;0.10;;;0.10;;
30872;SDS011;17579;42.690;2.586;2023-11-21T12:28:00;0.10;;;0.10;;
30872;SDS011;17579;42.690;2.586;2023-11-21T12:30:28;0.10;;;0.10;;
30872;SDS011;17579;42.690;2.586;2023-11-21T12:32:58;0.10;;;0.10;;
30872;SDS011;17579;42.690;2.586;2023-11-21T12:35:31;0.10;;;0.10;;
30872;SDS011;17579;42.690;2.586;2023-11-21T12:38:07;0.10;;;0.10;;
30872;SDS011;17579;42.690;2.586;2023-11-21T12:40:34;0.10;;;0.10;;
30872;SDS011;17579;42.690;2.586;2023-11-21T12:43:26;0.10;;;0.10;;
30872;SDS011;17579;42.690;2.586;2023-11-21T12:46:04;0.10;;;0.10;;
30872;SDS011;17579;42.690;2.586;2023-11-21T12:48:36;0.10;;;0.10;;
30872;SDS011;17579;42.690;2.586;2023-11-21T12:51:12;0.35;;;0.15;;
30872;SDS011;17579;42.690;2.586;2023-11-21T12:53:44;0.00;;;0.00;;
30872;SDS011;17579;42.690;2.586;2023-11-21T12:56:12;0.00;;;0.00;;
30872;SDS011;17579;42.690;2.586;2023-11-21T12:58:39;0.05;;;0.05;;
30872;SDS011;17579;42.690;2.586;2023-11-21T13:01:10;0.13;;;0.10;;
30872;SDS011;17579;42.690;2.586;2023-11-21T13:03:46;0.10;;;0.10;;
30872;SDS011;17579;42.690;2.586;2023-11-21T13:06:14;0.10;;;0.10;;
30872;SDS011;17579;42.690;2.586;2023-11-21T13:08:46;0.22;;;0.20;;
30872;SDS011;17579;42.690;2.586;2023-11-21T13:11:12;0.20;;;0.20;;
30872;SDS011;17579;42.690;2.586;2023-11-21T13:13:41;0.10;;;0.10;;
30872;SDS011;17579;42.690;2.586;2023-11-21T13:16:08;0.20;;;0.20;;
30872;SDS011;17579;42.690;2.586;2023-11-21T13:18:39;0.10;;;0.10;;
30872;SDS011;17579;42.690;2.586;2023-11-21T13:21:09;0.43;;;0.20;;
30872;SDS011;17579;42.690;2.586;2023-11-21T13:23:41;0.10;;;0.10;;
30872;SDS011;17579;42.690;2.586;2023-11-21T13:26:28;0.20;;;0.20;;
30872;SDS011;17579;42.690;2.586;2023-11-21T13:28:57;0.10;;;0.10;;
30872;SDS011;17579;42.690;2.586;2023-11-21T13:31:27;0.10;;;0.10;;
30872;SDS011;17579;42.690;2.586;2023-11-21T13:33:56;0.25;;;0.25;;
30872;SDS011;17579;42.690;2.586;2023-11-21T13:36:29;0.20;;;0.20;;
30872;SDS011;17579;42.690;2.586;2023-11-21T13:39:04;0.20;;;0.20;;
30872;SDS011;17579;42.690;2.586;2023-11-21T13:41:38;0.20;;;0.13;;
30872;SDS011;17579;42.690;2.586;2023-11-21T13:44:07;0.20;;;0.20;;
30872;SDS011;17579;42.690;2.586;2023-11-21T13:46:51;0.20;;;0.20;;
30872;SDS011;17579;42.690;2.586;2023-11-21T13:52:11;0.20;;;0.20;;
30872;SDS011;17579;42.690;2.586;2023-11-21T13:54:41;0.30;;;0.30;;
30872;SDS011;17579;42.690;2.586;2023-11-21T13:57:07;0.20;;;0.20;;
30872;SDS011;17579;42.690;2.586;2023-11-21T13:59:33;0.20;;;0.20;;
30872;SDS011;17579;42.690;2.586;2023-11-21T14:02:01;0.30;;;0.30;;
30872;SDS011;17579;42.690;2.586;2023-11-21T14:04:33;0.17;;;0.17;;
30872;SDS011;17579;42.690;2.586;2023-11-21T14:07:17;0.20;;;0.20;;
30872;SDS011;17579;42.690;2.586;2023-11-21T14:09:43;0.30;;;0.30;;
30872;SDS011;17579;42.690;2.586;2023-11-21T14:12:09;0.30;;;0.30;;
30872;SDS011;17579;42.690;2.586;2023-11-21T14:14:45;0.30;;;0.25;;
30872;SDS011;17579;42.690;2.586;2023-11-21T14:17:12;0.30;;;0.30;;
30872;SDS011;17579;42.690;2.586;2023-11-21T14:19:59;0.30;;;0.30;;
30872;SDS011;17579;42.690;2.586;2023-11-21T14:22:24;0.20;;;0.20;;
30872;SDS011;17579;42.690;2.586;2023-11-21T14:25:23;0.40;;;0.40;;
30872;SDS011;17579;42.690;2.586;2023-11-21T14:27:47;0.30;;;0.30;;
30872;SDS011;17579;42.690;2.586;2023-11-21T14:30:19;0.40;;;0.40;;
30872;SDS011;17579;42.690;2.586;2023-11-21T14:32:47;0.30;;;0.30;;
30872;SDS011;17579;42.690;2.586;2023-11-21T14:35:20;0.35;;;0.35;;
30872;SDS011;17579;42.690;2.586;2023-11-21T14:37:48;0.28;;;0.28;;
30872;SDS011;17579;42.690;2.586;2023-11-21T14:40:13;1.00;;;0.60;;
30872;SDS011;17579;42.690;2.586;2023-11-21T14:42:44;0.40;;;0.30;;
30872;SDS011;17579;42.690;2.586;2023-11-21T14:45:32;0.40;;;0.40;;
30872;SDS011;17579;42.690;2.586;2023-11-21T14:48:05;0.55;;;0.32;;
30872;SDS011;17579;42.690;2.586;2023-11-21T14:50:41;0.30;;;0.30;;
30872;SDS011;17579;42.690;2.586;2023-11-21T14:53:08;0.60;;;0.50;;
30872;SDS011;17579;42.690;2.586;2023-11-21T14:56:03;0.35;;;0.35;;
30872;SDS011;17579;42.690;2.586;2023-11-21T14:58:32;0.40;;;0.40;;
30872;SDS011;17579;42.690;2.586;2023-11-21T15:00:58;0.43;;;0.43;;
30872;SDS011;17579;42.690;2.586;2023-11-21T15:03:26;0.60;;;0.52;;
30872;SDS011;17579;42.690;2.586;2023-11-21T15:05:53;0.50;;;0.50;;
30872;SDS011;17579;42.690;2.586;2023-11-21T15:08:18;0.70;;;0.63;;
30872;SDS011;17579;42.690;2.586;2023-11-21T15:10:45;0.55;;;0.50;;
30872;SDS011;17579;42.690;2.586;2023-11-21T15:13:13;0.40;;;0.40;;
30872;SDS011;17579;42.690;2.586;2023-11-21T15:15:40;0.60;;;0.60;;
30872;SDS011;17579;42.690;2.586;2023-11-21T15:18:07;0.52;;;0.52;;
30872;SDS011;17579;42.690;2.586;2023-11-21T15:20:40;0.40;;;0.32;;
30872;SDS011;17579;42.690;2.586;2023-11-21T15:23:17;0.43;;;0.43;;
30872;SDS011;17579;42.690;2.586;2023-11-21T15:25:46;0.35;;;0.30;;
30872;SDS011;17579;42.690;2.586;2023-11-21T15:28:21;0.40;;;0.40;;
30872;SDS011;17579;42.690;2.586;2023-11-21T15:30:47;0.45;;;0.40;;
30872;SDS011;17579;42.690;2.586;2023-11-21T15:33:17;0.40;;;0.40;;
30872;SDS011;17579;42.690;2.586;2023-11-21T15:35:45;0.30;;;0.30;;
30872;SDS011;17579;42.690;2.586;2023-11-21T15:38:19;0.35;;;0.20;;
30872;SDS011;17579;42.690;2.586;2023-11-21T15:40:45;0.40;;;0.30;;
30872;SDS011;17579;42.690;2.586;2023-11-21T15:43:12;0.32;;;0.30;;
30872;SDS011;17579;42.690;2.586;2023-11-21T15:45:57;0.55;;;0.30;;
30872;SDS011;17579;42.690;2.586;2023-11-21T15:48:23;0.20;;;0.20;;
30872;SDS011;17579;42.690;2.586;2023-11-21T15:50:49;0.35;;;0.35;;
30872;SDS011;17579;42.690;2.586;2023-11-21T15:53:17;0.30;;;0.30;;
30872;SDS011;17579;42.690;2.586;2023-11-21T15:55:51;0.30;;;0.30;;
30872;SDS011;17579;42.690;2.586;2023-11-21T15:58:24;0.28;;;0.28;;